Time;durP1;ratioP1;P1;durP2;ratioP2;P2;SDS_P1;SDS_P2;PMS_P1;PMS_P2;Temp;Humidity;BMP_temperature;BMP_pressure;BME280_temperature;BME280_humidity;BME280_pressure;Samples;Min_cycle;Max_cycle;Signal;HPM_P1;HPM_P2
2022/03/07 00:00:49;;;;;;;0.68;0.68;;;2.40;99.90;;;;;;4993599;28;20022;-72
2022/03/07 00:03:15;;;;;;;0.70;0.70;;;2.30;99.90;;;;;;4993298;28;20038;-72
2022/03/07 00:05:41;;;;;;;0.47;0.47;;;2.30;99.90;;;;;;4993592;28;20026;-70
2022/03/07 00:08:06;;;;;;;3.03;0.82;;;2.30;99.90;;;;;;4993475;28;20088;-70
2022/03/07 00:10:32;;;;;;;1.75;1.60;;;2.20;99.90;;;;;;4992726;28;20023;-71
2022/03/07 00:12:58;;;;;;;0.65;0.52;;;2.20;99.90;;;;;;4993494;28;20087;-70
2022/03/07 00:15:23;;;;;;;1.20;1.10;;;2.20;99.90;;;;;;4993393;28;20034;-70
2022/03/07 00:17:49;;;;;;;1.17;1.08;;;2.20;99.90;;;;;;4993010;28;20516;-70
2022/03/07 00:20:15;;;;;;;0.35;0.35;;;2.10;99.90;;;;;;4993890;28;20018;-70
2022/03/07 00:22:41;;;;;;;0.57;0.57;;;2.10;99.90;;;;;;4993572;28;20030;-70
2022/03/07 00:25:07;;;;;;;0.45;0.45;;;2.10;99.90;;;;;;4993260;28;20169;-70
2022/03/07 00:27:33;;;;;;;1.17;1.13;;;2.00;99.90;;;;;;4993265;28;20100;-71
2022/03/07 00:29:59;;;;;;;0.98;0.85;;;2.00;99.90;;;;;;4993438;28;20423;-71
2022/03/07 00:32:25;;;;;;;0.98;0.98;;;1.90;99.90;;;;;;4992662;28;20037;-70
2022/03/07 00:34:51;;;;;;;0.75;0.75;;;2.00;99.90;;;;;;4993120;28;20023;-70
2022/03/07 00:37:16;;;;;;;0.40;0.40;;;1.90;99.90;;;;;;4992835;28;20030;-71
2022/03/07 00:39:42;;;;;;;0.88;0.88;;;1.80;99.90;;;;;;4993417;28;20528;-71
2022/03/07 00:42:08;;;;;;;0.90;0.90;;;1.80;99.90;;;;;;4993412;28;20073;-71
2022/03/07 00:44:33;;;;;;;0.35;0.35;;;1.90;99.90;;;;;;4984724;28;20047;-70
2022/03/07 00:46:59;;;;;;;2.08;0.95;;;1.90;99.90;;;;;;4973867;28;20031;-70
2022/03/07 00:49:25;;;;;;;1.17;0.88;;;1.80;99.90;;;;;;4977603;28;20102;-71
2022/03/07 00:51:50;;;;;;;0.55;0.55;;;1.70;99.90;;;;;;4992950;28;20026;-70
2022/03/07 00:54:16;;;;;;;1.50;1.35;;;1.70;99.90;;;;;;4993041;28;20041;-72
2022/03/07 00:56:42;;;;;;;2.90;1.55;;;1.70;99.90;;;;;;4993516;28;20076;-72
2022/03/07 00:59:08;;;;;;;0.75;0.75;;;1.60;99.90;;;;;;4993198;28;20065;-72
2022/03/07 01:01:34;;;;;;;1.08;0.82;;;1.60;99.90;;;;;;4992896;28;20041;-70
2022/03/07 01:04:00;;;;;;;4.45;1.05;;;1.50;99.90;;;;;;5011690;28;20053;-70
2022/03/07 01:06:26;;;;;;;0.28;0.28;;;1.50;99.90;;;;;;4996140;28;20474;-72
2022/03/07 01:08:51;;;;;;;1.95;1.65;;;1.50;99.90;;;;;;4996310;28;20068;-72
2022/03/07 01:11:17;;;;;;;1.05;0.73;;;1.50;99.90;;;;;;4996500;28;20022;-72
2022/03/07 01:13:43;;;;;;;0.77;0.55;;;1.50;99.90;;;;;;4995922;28;20029;-71
2022/03/07 01:16:09;;;;;;;2.92;2.08;;;1.50;99.90;;;;;;4996307;28;20402;-70
2022/03/07 01:18:35;;;;;;;0.13;0.13;;;1.50;99.90;;;;;;4996375;28;20456;-70
2022/03/07 01:21:00;;;;;;;0.47;0.47;;;1.40;99.90;;;;;;4996669;28;20371;-72
2022/03/07 01:23:26;;;;;;;1.85;0.80;;;1.40;99.90;;;;;;4996266;28;20026;-71
2022/03/07 01:25:52;;;;;;;0.55;0.55;;;1.40;99.90;;;;;;4996288;28;20026;-71
2022/03/07 01:28:17;;;;;;;0.88;0.88;;;1.30;99.90;;;;;;4996161;28;20402;-71
2022/03/07 01:30:43;;;;;;;1.23;0.98;;;1.30;99.90;;;;;;4996380;28;20022;-70
2022/03/07 01:33:09;;;;;;;0.47;0.47;;;1.30;99.90;;;;;;4996231;28;20034;-71
2022/03/07 01:35:35;;;;;;;0.10;0.10;;;1.20;99.90;;;;;;4996400;28;20054;-70
2022/03/07 01:38:00;;;;;;;4.05;1.25;;;1.20;99.90;;;;;;4995591;28;20493;-71
2022/03/07 01:40:26;;;;;;;0.43;0.43;;;1.30;99.90;;;;;;4995845;28;20031;-71
2022/03/07 01:42:52;;;;;;;0.82;0.82;;;1.10;99.90;;;;;;4995487;28;20015;-70
2022/03/07 01:45:19;;;;;;;1.25;1.25;;;1.10;99.90;;;;;;4995732;28;20065;-71
2022/03/07 01:47:45;;;;;;;1.20;0.95;;;1.00;99.90;;;;;;4995816;28;20019;-71
2022/03/07 01:50:15;;;;;;;0.63;0.63;;;1.00;99.90;;;;;;4995806;28;20109;-70
2022/03/07 01:52:44;;;;;;;0.40;0.40;;;1.00;99.90;;;;;;4995699;28;20098;-70
2022/03/07 01:55:11;;;;;;;0.43;0.43;;;1.00;99.90;;;;;;4995553;28;20038;-71
2022/03/07 01:57:39;;;;;;;0.38;0.38;;;1.00;99.90;;;;;;4996093;28;20113;-71
2022/03/07 02:00:14;;;;;;;1.40;1.27;;;1.00;99.90;;;;;;4995317;28;20031;-70
2022/03/07 02:02:41;;;;;;;0.43;0.43;;;1.00;99.90;;;;;;4995844;28;20390;-70
2022/03/07 02:05:07;;;;;;;5.38;3.95;;;1.00;99.90;;;;;;4995103;28;20034;-71
2022/03/07 02:07:33;;;;;;;0.75;0.75;;;0.90;99.90;;;;;;4995159;28;20394;-71
2022/03/07 02:10:00;;;;;;;0.55;0.55;;;0.90;99.90;;;;;;4995341;28;20041;-70
2022/03/07 02:12:25;;;;;;;0.20;0.20;;;0.70;99.90;;;;;;4995723;28;20026;-70
2022/03/07 02:14:51;;;;;;;0.43;0.43;;;0.70;99.90;;;;;;4994626;28;20034;-70
2022/03/07 02:17:17;;;;;;;2.97;0.95;;;0.60;99.90;;;;;;4993328;28;20033;-71
2022/03/07 02:19:43;;;;;;;0.28;0.28;;;0.60;99.90;;;;;;4995380;28;20092;-71
2022/03/07 02:22:10;;;;;;;1.38;1.27;;;0.50;99.90;;;;;;4995305;28;20486;-70
2022/03/07 02:24:37;;;;;;;1.65;1.02;;;0.50;99.90;;;;;;4994871;28;20077;-72
2022/03/07 02:27:06;;;;;;;0.10;0.10;;;0.50;99.90;;;;;;4995368;28;20402;-72
2022/03/07 02:29:32;;;;;;;0.17;0.17;;;0.50;99.90;;;;;;4994966;28;20101;-70
2022/03/07 02:31:58;;;;;;;0.43;0.43;;;0.50;99.90;;;;;;4995196;28;20037;-70
2022/03/07 02:34:24;;;;;;;1.05;1.05;;;0.50;99.90;;;;;;4995374;28;20023;-71
2022/03/07 02:36:50;;;;;;;0.77;0.75;;;0.60;99.90;;;;;;4995193;28;20069;-70
2022/03/07 02:39:16;;;;;;;0.60;0.60;;;0.60;99.90;;;;;;4993870;28;20559;-71
2022/03/07 02:41:42;;;;;;;0.75;0.75;;;0.70;99.90;;;;;;4994879;28;20552;-70
2022/03/07 02:44:08;;;;;;;0.95;0.93;;;0.70;99.90;;;;;;4994274;28;20038;-70
2022/03/07 02:46:34;;;;;;;0.50;0.50;;;0.70;99.90;;;;;;4995098;28;20076;-71
2022/03/07 02:49:00;;;;;;;0.35;0.35;;;0.70;99.90;;;;;;4994487;28;20543;-71
2022/03/07 02:51:26;;;;;;;0.88;0.88;;;0.70;99.90;;;;;;4994069;28;20030;-72
2022/03/07 02:53:52;;;;;;;1.95;1.23;;;0.70;99.90;;;;;;4994522;28;20398;-71
2022/03/07 02:56:17;;;;;;;1.10;0.38;;;0.70;99.90;;;;;;4995062;28;20397;-70
2022/03/07 02:58:43;;;;;;;0.55;0.55;;;0.70;99.90;;;;;;4994543;28;20557;-71
2022/03/07 03:01:09;;;;;;;0.73;0.73;;;0.70;99.90;;;;;;4994534;28;20551;-72
2022/03/07 03:03:35;;;;;;;0.17;0.17;;;0.70;99.90;;;;;;4994489;28;20053;-70
2022/03/07 03:06:00;;;;;;;1.02;0.93;;;0.70;99.90;;;;;;4993302;28;20069;-71
2022/03/07 03:08:26;;;;;;;0.25;0.25;;;0.60;99.90;;;;;;4994409;28;20093;-70
2022/03/07 03:10:53;;;;;;;0.30;0.30;;;0.60;99.90;;;;;;4994392;28;20030;-70
2022/03/07 03:13:22;;;;;;;0.30;0.30;;;0.70;99.90;;;;;;4994096;28;20461;-70
2022/03/07 03:15:48;;;;;;;2.65;1.33;;;0.70;99.90;;;;;;4994384;28;20501;-71
2022/03/07 03:18:14;;;;;;;1.88;1.00;;;0.60;99.90;;;;;;4994011;28;20053;-71
2022/03/07 03:20:41;;;;;;;1.35;1.25;;;0.60;99.90;;;;;;4994579;28;20050;-71
2022/03/07 03:23:06;;;;;;;3.22;1.45;;;0.50;99.90;;;;;;4994169;28;20547;-70
2022/03/07 03:25:32;;;;;;;0.88;0.88;;;0.50;99.90;;;;;;4992998;28;20101;-72
2022/03/07 03:27:58;;;;;;;3.15;1.48;;;0.50;99.90;;;;;;4993290;28;20057;-71
2022/03/07 03:30:24;;;;;;;0.35;0.35;;;0.50;99.90;;;;;;4994236;28;20027;-70
2022/03/07 03:32:49;;;;;;;0.30;0.30;;;0.50;99.90;;;;;;4994384;28;20566;-70
2022/03/07 03:35:15;;;;;;;3.05;1.35;;;0.50;99.90;;;;;;4993897;28;20111;-70
2022/03/07 03:37:41;;;;;;;0.60;0.60;;;0.50;99.90;;;;;;4994095;28;20026;-71
2022/03/07 03:40:09;;;;;;;0.55;0.55;;;0.40;99.90;;;;;;4993034;28;20049;-70
2022/03/07 03:42:35;;;;;;;0.88;0.88;;;0.50;99.90;;;;;;4993931;28;20116;-70
2022/03/07 03:45:00;;;;;;;1.25;1.15;;;0.50;99.90;;;;;;4993871;28;20081;-71
2022/03/07 03:47:26;;;;;;;2.05;1.33;;;0.50;99.90;;;;;;4993834;28;20101;-70
2022/03/07 03:49:52;;;;;;;0.65;0.65;;;0.50;99.90;;;;;;4993443;28;20445;-70
2022/03/07 03:52:18;;;;;;;0.52;0.52;;;0.40;99.90;;;;;;4993650;28;20037;-72
2022/03/07 03:54:44;;;;;;;0.57;0.57;;;0.40;99.90;;;;;;4993193;28;20030;-71
2022/03/07 03:57:09;;;;;;;1.80;1.70;;;0.50;99.90;;;;;;4993573;28;20077;-71
2022/03/07 03:59:35;;;;;;;0.60;0.60;;;0.40;99.90;;;;;;4993719;28;20034;-70
2022/03/07 04:02:01;;;;;;;3.13;1.20;;;0.40;99.90;;;;;;4992939;28;20081;-70
2022/03/07 04:04:27;;;;;;;4.05;1.05;;;0.40;99.90;;;;;;4993510;28;20036;-70
2022/03/07 04:06:52;;;;;;;1.38;1.02;;;0.30;99.90;;;;;;4993754;28;20062;-71
2022/03/07 04:09:20;;;;;;;0.05;0.05;;;0.30;99.90;;;;;;4993283;28;20026;-71
2022/03/07 04:11:46;;;;;;;1.48;1.15;;;0.20;99.90;;;;;;4993140;28;20034;-71
2022/03/07 04:14:12;;;;;;;0.63;0.52;;;0.20;99.90;;;;;;4993039;28;20057;-70
2022/03/07 04:16:38;;;;;;;0.57;0.57;;;0.20;99.90;;;;;;4993501;28;20026;-70
2022/03/07 04:19:09;;;;;;;0.40;0.40;;;0.20;99.90;;;;;;4993608;28;20026;-71
2022/03/07 04:21:36;;;;;;;0.80;0.80;;;0.30;99.90;;;;;;4993741;28;20397;-72
2022/03/07 04:24:03;;;;;;;1.33;1.33;;;0.20;99.90;;;;;;4992876;28;20019;-72
2022/03/07 04:26:29;;;;;;;2.08;0.60;;;0.10;99.90;;;;;;4993330;28;20077;-70
2022/03/07 04:28:54;;;;;;;1.25;0.80;;;0.10;99.90;;;;;;4993440;28;20030;-70
2022/03/07 04:31:21;;;;;;;1.45;1.00;;;0.10;99.90;;;;;;4992228;28;20026;-70
2022/03/07 04:33:47;;;;;;;0.08;0.08;;;0.10;99.90;;;;;;4993338;28;20034;-71
2022/03/07 04:36:18;;;;;;;0.63;0.63;;;0.00;99.90;;;;;;4992589;28;20026;-71
2022/03/07 04:38:44;;;;;;;0.75;0.45;;;0.00;99.90;;;;;;4976997;28;20034;-70
2022/03/07 04:41:10;;;;;;;0.52;0.52;;;0.00;99.90;;;;;;4977066;28;20081;-70
2022/03/07 04:43:36;;;;;;;0.63;0.63;;;-0.10;99.90;;;;;;4977370;28;20027;-71
2022/03/07 04:46:02;;;;;;;2.05;1.08;;;-0.10;99.90;;;;;;4995088;28;20034;-70
2022/03/07 04:48:28;;;;;;;0.85;0.82;;;-0.10;99.90;;;;;;4997130;28;20474;-70
2022/03/07 04:50:53;;;;;;;4.72;1.75;;;-0.10;99.90;;;;;;4996730;28;20084;-71
2022/03/07 04:53:19;;;;;;;0.88;0.88;;;-0.10;99.90;;;;;;4996520;28;20161;-71
2022/03/07 04:55:45;;;;;;;1.63;1.48;;;-0.10;99.90;;;;;;4996894;28;20033;-72
2022/03/07 04:58:10;;;;;;;1.08;1.02;;;-0.10;99.90;;;;;;4997090;28;20038;-71
2022/03/07 05:00:36;;;;;;;0.60;0.60;;;-0.20;99.90;;;;;;4995656;28;20109;-70
2022/03/07 05:03:01;;;;;;;1.13;1.08;;;-0.10;99.90;;;;;;4996577;28;20026;-71
2022/03/07 05:05:27;;;;;;;0.77;0.77;;;-0.20;99.90;;;;;;4996504;28;20026;-70
2022/03/07 05:07:53;;;;;;;0.63;0.63;;;-0.20;99.90;;;;;;4996248;28;20077;-71
2022/03/07 05:10:20;;;;;;;1.52;1.38;;;-0.20;99.90;;;;;;4996484;28;20030;-70
2022/03/07 05:12:47;;;;;;;1.13;1.10;;;-0.20;99.90;;;;;;4995909;28;20014;-71
2022/03/07 05:15:13;;;;;;;0.68;0.52;;;-0.20;99.90;;;;;;4996626;28;20392;-70
2022/03/07 05:17:43;;;;;;;1.13;1.00;;;-0.30;99.90;;;;;;4996287;28;20033;-70
2022/03/07 05:20:10;;;;;;;0.15;0.15;;;-0.30;99.90;;;;;;4996830;28;20034;-70
2022/03/07 05:22:35;;;;;;;0.32;0.32;;;-0.30;99.90;;;;;;4986890;28;20040;-70
2022/03/07 05:25:01;;;;;;;0.38;0.38;;;-0.30;99.90;;;;;;4976566;28;20106;-71
2022/03/07 05:27:27;;;;;;;5.75;0.57;;;-0.30;99.90;;;;;;4976712;28;20105;-71
2022/03/07 05:29:52;;;;;;;2.55;1.30;;;-0.30;99.90;;;;;;4976536;28;20019;-71
2022/03/07 05:32:18;;;;;;;3.92;1.40;;;-0.30;99.90;;;;;;4976820;28;20026;-70
2022/03/07 05:34:44;;;;;;;0.10;0.10;;;-0.30;99.90;;;;;;4976668;28;20027;-71
2022/03/07 05:37:09;;;;;;;0.40;0.40;;;-0.30;99.90;;;;;;4976705;28;20073;-71
2022/03/07 05:39:38;;;;;;;2.88;1.30;;;-0.30;99.90;;;;;;4976649;28;20031;-71
2022/03/07 05:42:04;;;;;;;2.13;2.03;;;-0.30;99.90;;;;;;4976099;28;20035;-71
2022/03/07 05:44:29;;;;;;;2.38;1.42;;;-0.30;99.90;;;;;;4976602;28;20050;-70
2022/03/07 05:46:55;;;;;;;0.40;0.40;;;-0.30;99.90;;;;;;4975909;28;20027;-71
2022/03/07 05:49:21;;;;;;;2.45;1.33;;;-0.30;99.90;;;;;;4978716;28;20496;-70
2022/03/07 05:51:46;;;;;;;1.15;1.10;;;-0.20;99.90;;;;;;4995787;28;20054;-72
2022/03/07 05:54:12;;;;;;;0.90;0.90;;;-0.30;99.90;;;;;;4995604;28;20034;-72
2022/03/07 05:56:38;;;;;;;4.82;1.85;;;-0.30;99.90;;;;;;4995856;28;20030;-70
2022/03/07 05:59:03;;;;;;;1.58;1.48;;;-0.30;99.90;;;;;;4992960;28;20401;-70
2022/03/07 06:01:29;;;;;;;0.55;0.55;;;-0.30;99.90;;;;;;4994334;28;20089;-71
2022/03/07 06:03:55;;;;;;;3.08;2.55;;;-0.30;99.90;;;;;;4995472;28;20030;-73
2022/03/07 06:06:20;;;;;;;1.50;0.55;;;-0.20;99.90;;;;;;4995467;28;20445;-73
2022/03/07 06:08:46;;;;;;;0.88;0.88;;;-0.30;99.90;;;;;;4995033;28;20482;-72
2022/03/07 06:11:11;;;;;;;1.40;1.15;;;-0.40;99.90;;;;;;4995429;28;20027;-70
2022/03/07 06:13:37;;;;;;;9.75;2.13;;;-0.40;99.90;;;;;;4995582;28;20042;-70
2022/03/07 06:16:03;;;;;;;0.82;0.82;;;-0.30;99.90;;;;;;4994947;28;20061;-71
2022/03/07 06:18:30;;;;;;;1.30;1.20;;;-0.40;99.90;;;;;;4994864;28;20426;-70
2022/03/07 06:20:56;;;;;;;0.98;0.65;;;-0.40;99.90;;;;;;4994713;28;20041;-71
2022/03/07 06:23:23;;;;;;;2.20;0.90;;;-0.50;99.90;;;;;;4979175;28;20482;-71
2022/03/07 06:25:49;;;;;;;2.15;1.33;;;-0.40;99.90;;;;;;4975790;28;20023;-70
2022/03/07 06:28:15;;;;;;;0.95;0.90;;;-0.40;99.90;;;;;;4975482;28;20031;-72
2022/03/07 06:30:41;;;;;;;2.05;1.95;;;-0.40;99.90;;;;;;4987313;28;20027;-70
2022/03/07 06:33:07;;;;;;;3.10;1.88;;;-0.40;99.90;;;;;;4994493;28;20451;-70
2022/03/07 06:35:33;;;;;;;2.75;2.03;;;-0.40;99.90;;;;;;4989821;28;20109;-70
2022/03/07 06:37:58;;;;;;;0.50;0.50;;;-0.40;99.90;;;;;;4994713;28;20509;-70
2022/03/07 06:40:26;;;;;;;1.58;1.48;;;-0.40;99.90;;;;;;4994274;28;20034;-71
2022/03/07 06:42:52;;;;;;;3.00;1.77;;;-0.40;99.90;;;;;;4992750;28;20558;-70
2022/03/07 06:45:18;;;;;;;1.08;0.98;;;-0.40;99.90;;;;;;4994026;28;20062;-72
2022/03/07 06:47:46;;;;;;;0.63;0.63;;;-0.30;99.90;;;;;;4994401;28;20037;-72
2022/03/07 06:50:13;;;;;;;2.15;1.48;;;-0.30;99.90;;;;;;4994013;28;20023;-70
2022/03/07 06:52:39;;;;;;;1.63;0.98;;;-0.30;99.90;;;;;;4994243;28;20097;-71
2022/03/07 06:55:05;;;;;;;1.50;1.40;;;-0.30;99.90;;;;;;4994215;28;20060;-70
2022/03/07 06:57:31;;;;;;;0.90;0.90;;;-0.20;99.90;;;;;;4993056;28;20109;-71
2022/03/07 06:59:56;;;;;;;0.38;0.38;;;-0.20;99.90;;;;;;4992822;28;20442;-71
2022/03/07 07:02:22;;;;;;;2.65;2.38;;;-0.10;99.90;;;;;;4993522;28;20026;-70
2022/03/07 07:04:48;;;;;;;0.57;0.57;;;-0.10;99.90;;;;;;4993633;28;20054;-70
2022/03/07 07:07:15;;;;;;;1.85;0.93;;;-0.10;99.90;;;;;;4994239;28;20064;-70
2022/03/07 07:09:41;;;;;;;0.57;0.57;;;0.00;99.90;;;;;;4993934;28;20033;-70
2022/03/07 07:12:08;;;;;;;0.98;0.98;;;0.00;99.90;;;;;;4993722;28;20080;-70
2022/03/07 07:14:33;;;;;;;2.10;1.80;;;0.10;99.90;;;;;;4993091;28;20869;-71
2022/03/07 07:16:59;;;;;;;0.77;0.77;;;0.10;99.90;;;;;;4993764;28;20030;-70
2022/03/07 07:19:25;;;;;;;1.25;1.23;;;0.20;99.90;;;;;;4991504;28;20026;-70
2022/03/07 07:21:50;;;;;;;0.63;0.63;;;0.20;99.90;;;;;;4993381;28;20033;-71
2022/03/07 07:24:17;;;;;;;0.65;0.65;;;0.30;99.90;;;;;;4993578;28;20030;-71
2022/03/07 07:26:42;;;;;;;1.67;1.58;;;0.30;99.90;;;;;;4995703;28;20500;-70
2022/03/07 07:29:08;;;;;;;2.20;2.03;;;0.40;99.90;;;;;;4994623;28;20026;-70
2022/03/07 07:31:34;;;;;;;0.40;0.40;;;0.50;99.90;;;;;;4991691;28;20026;-70
2022/03/07 07:33:59;;;;;;;1.75;1.52;;;0.50;99.90;;;;;;4992355;28;20034;-71
2022/03/07 07:36:25;;;;;;;0.63;0.63;;;0.60;99.90;;;;;;4993020;28;20157;-71
2022/03/07 07:38:51;;;;;;;1.92;0.60;;;0.70;99.90;;;;;;4995342;28;20057;-71
2022/03/07 07:41:16;;;;;;;1.55;1.38;;;0.70;99.90;;;;;;4989459;28;20033;-71
2022/03/07 07:43:42;;;;;;;2.25;2.05;;;0.80;99.90;;;;;;4986227;28;20066;-71
2022/03/07 07:46:08;;;;;;;1.95;1.85;;;0.90;99.90;;;;;;4993366;28;20018;-71
2022/03/07 07:48:33;;;;;;;4.85;1.75;;;1.10;99.90;;;;;;4992593;28;20098;-70
2022/03/07 07:50:59;;;;;;;1.83;1.63;;;1.80;99.90;;;;;;4992759;28;20393;-71
2022/03/07 07:53:24;;;;;;;3.45;0.93;;;3.20;99.90;;;;;;4992740;28;20457;-72
2022/03/07 07:55:50;;;;;;;2.78;1.63;;;3.00;99.90;;;;;;4992656;28;20050;-70
2022/03/07 07:58:16;;;;;;;4.28;0.98;;;2.40;99.90;;;;;;4986682;28;20023;-71
2022/03/07 08:00:42;;;;;;;4.43;2.60;;;2.10;99.90;;;;;;5002597;28;20073;-71
2022/03/07 08:03:07;;;;;;;1.38;1.38;;;2.00;99.90;;;;;;4993010;28;20031;-71
2022/03/07 08:05:33;;;;;;;0.47;0.47;;;2.10;99.90;;;;;;4991671;28;20038;-71
2022/03/07 08:07:59;;;;;;;0.63;0.63;;;2.20;99.90;;;;;;4991434;28;20525;-71
2022/03/07 08:10:25;;;;;;;0.63;0.63;;;2.30;99.90;;;;;;4990795;28;20029;-70
2022/03/07 08:12:51;;;;;;;1.25;1.17;;;2.20;99.90;;;;;;4995627;28;20026;-71
2022/03/07 08:15:16;;;;;;;3.22;2.45;;;2.20;99.90;;;;;;4984614;28;20050;-72
2022/03/07 08:17:46;;;;;;;4.95;2.55;;;2.30;99.90;;;;;;4986084;28;20146;-71
2022/03/07 08:20:13;;;;;;;1.63;1.50;;;2.30;99.90;;;;;;4979316;28;20745;-70
2022/03/07 08:22:39;;;;;;;1.23;1.20;;;2.50;99.90;;;;;;4984968;28;20037;-70
2022/03/07 08:25:06;;;;;;;1.13;1.13;;;2.50;99.90;;;;;;4988468;28;20545;-72
2022/03/07 08:27:34;;;;;;;1.75;1.65;;;2.80;99.90;;;;;;4982290;28;20058;-72
2022/03/07 08:30:00;;;;;;;1.45;1.35;;;4.00;99.90;;;;;;4986803;28;20062;-72
2022/03/07 08:32:26;;;;;;;5.10;1.45;;;6.60;99.90;;;;;;4999680;28;20421;-71
2022/03/07 08:34:52;;;;;;;3.33;2.40;;;8.40;99.90;;;;;;4999612;28;20029;-73
2022/03/07 08:37:17;;;;;;;1.30;1.20;;;9.10;99.90;;;;;;5001224;28;20030;-73
2022/03/07 08:39:43;;;;;;;9.10;3.35;;;9.50;99.80;;;;;;5000695;28;20030;-73
2022/03/07 08:42:09;;;;;;;6.55;2.03;;;9.70;99.10;;;;;;4999521;28;20112;-73
2022/03/07 08:44:35;;;;;;;10.98;2.78;;;10.60;99.00;;;;;;4997128;28;20065;-73
2022/03/07 08:47:00;;;;;;;4.18;2.15;;;11.40;97.40;;;;;;4978862;28;20031;-73
2022/03/07 08:49:26;;;;;;;2.15;1.45;;;12.10;96.50;;;;;;4982625;28;20026;-73
2022/03/07 08:51:52;;;;;;;6.07;2.70;;;12.60;95.50;;;;;;4988308;28;20437;-74
2022/03/07 08:54:17;;;;;;;7.90;3.03;;;12.80;94.40;;;;;;4984724;28;20038;-74
2022/03/07 08:56:44;;;;;;;6.75;3.03;;;12.50;94.50;;;;;;4998344;28;20027;-74
2022/03/07 08:59:10;;;;;;;11.05;2.85;;;12.50;94.70;;;;;;4996111;28;20052;-74
2022/03/07 09:01:36;;;;;;;12.80;2.10;;;11.80;94.70;;;;;;4999066;28;20037;-73
2022/03/07 09:04:02;;;;;;;7.38;1.75;;;11.20;96.20;;;;;;4984864;28;20027;-74
2022/03/07 09:06:28;;;;;;;6.15;1.92;;;10.40;96.70;;;;;;4996616;28;20069;-73
2022/03/07 09:08:54;;;;;;;6.03;1.85;;;9.40;97.70;;;;;;4990343;28;20030;-74
2022/03/07 09:11:19;;;;;;;6.65;2.05;;;9.20;98.30;;;;;;5001912;28;20488;-74
2022/03/07 09:13:45;;;;;;;10.13;4.00;;;9.00;98.30;;;;;;4997445;28;20054;-73
2022/03/07 09:16:11;;;;;;;8.98;1.77;;;9.10;98.40;;;;;;4990695;28;20065;-74
2022/03/07 09:18:37;;;;;;;2.50;2.03;;;9.10;98.20;;;;;;4996355;28;20030;-74
2022/03/07 09:21:03;;;;;;;2.30;1.00;;;9.10;98.10;;;;;;4998225;28;20473;-73
2022/03/07 09:23:33;;;;;;;2.92;1.02;;;9.20;97.90;;;;;;4984604;28;20448;-73
2022/03/07 09:26:00;;;;;;;5.40;1.17;;;8.90;98.50;;;;;;4991218;28;20026;-73
2022/03/07 09:28:26;;;;;;;6.45;2.15;;;8.70;98.40;;;;;;4991671;28;20401;-73
2022/03/07 09:30:51;;;;;;;5.35;1.52;;;8.70;99.40;;;;;;4992328;28;20023;-73
2022/03/07 09:33:17;;;;;;;1.63;1.20;;;9.00;98.80;;;;;;4991133;28;20034;-73
2022/03/07 09:35:43;;;;;;;4.72;1.60;;;9.60;98.90;;;;;;4981042;28;20027;-74
2022/03/07 09:38:08;;;;;;;9.63;3.05;;;9.70;98.20;;;;;;4984007;28;20093;-74
2022/03/07 09:40:34;;;;;;;4.53;1.67;;;10.10;97.30;;;;;;4992057;28;20037;-74
2022/03/07 09:43:00;;;;;;;6.95;2.17;;;10.70;96.60;;;;;;4983882;28;20061;-75
2022/03/07 09:45:26;;;;;;;9.50;2.75;;;11.90;95.40;;;;;;4983573;28;20042;-74
2022/03/07 09:47:52;;;;;;;7.43;3.10;;;13.50;94.50;;;;;;4975529;28;20445;-74
2022/03/07 09:50:18;;;;;;;5.72;2.70;;;13.80;93.60;;;;;;4984661;28;20030;-74
2022/03/07 09:52:45;;;;;;;4.07;3.28;;;14.10;92.50;;;;;;4987907;28;20030;-73
2022/03/07 09:55:16;;;;;;;5.43;1.52;;;13.80;92.70;;;;;;4988208;28;20042;-73
2022/03/07 09:57:42;;;;;;;3.35;1.60;;;11.80;93.70;;;;;;4988055;28;20027;-73
2022/03/07 10:00:09;;;;;;;5.68;1.42;;;10.30;95.30;;;;;;4993410;28;20034;-72
2022/03/07 10:02:34;;;;;;;2.00;1.17;;;9.60;96.40;;;;;;4987452;28;20030;-72
2022/03/07 10:05:02;;;;;;;12.88;3.25;;;9.10;96.80;;;;;;4975633;28;20031;-73
2022/03/07 10:07:28;;;;;;;5.55;1.17;;;9.00;97.80;;;;;;4982763;28;20374;-73
2022/03/07 10:10:08;;;;;;;4.75;1.00;;;8.70;97.90;;;;;;4989693;28;20026;-73
2022/03/07 10:12:34;;;;;;;1.73;1.63;;;8.30;98.60;;;;;;4982360;28;20710;-73
2022/03/07 10:15:14;;;;;;;5.72;1.75;;;8.10;99.20;;;;;;4995320;28;20039;-73
2022/03/07 10:17:49;;;;;;;0.25;0.25;;;8.30;99.00;;;;;;4979049;28;20034;-73
2022/03/07 10:20:19;;;;;;;2.40;1.83;;;8.30;98.70;;;;;;4992160;28;20409;-73
2022/03/07 10:22:47;;;;;;;2.03;1.02;;;8.30;99.30;;;;;;4992229;28;20029;-73
2022/03/07 10:25:13;;;;;;;4.38;0.73;;;8.30;98.70;;;;;;4979099;28;20058;-73
2022/03/07 10:27:44;;;;;;;4.18;0.88;;;8.50;99.60;;;;;;4983803;28;20026;-73
2022/03/07 10:30:21;;;;;;;1.67;0.68;;;8.70;98.70;;;;;;4991932;28;20028;-73
2022/03/07 10:33:10;;;;;;;9.57;1.98;;;8.50;98.90;;;;;;4984330;28;20030;-73
2022/03/07 10:35:41;;;;;;;8.30;3.78;;;8.60;99.70;;;;;;4989142;28;20022;-73
2022/03/07 10:38:08;;;;;;;3.00;1.65;;;8.40;99.40;;;;;;4983347;28;20038;-73
2022/03/07 10:40:36;;;;;;;2.20;0.32;;;8.40;98.80;;;;;;4977742;28;20031;-72
2022/03/07 10:43:04;;;;;;;4.72;2.15;;;8.40;98.80;;;;;;4992324;28;20026;-73
2022/03/07 10:45:31;;;;;;;6.18;1.50;;;8.30;98.60;;;;;;4978699;28;20049;-73
2022/03/07 10:47:59;;;;;;;3.40;1.98;;;8.20;98.90;;;;;;4973852;28;20042;-72
2022/03/07 10:50:28;;;;;;;6.05;0.90;;;8.40;99.90;;;;;;4985515;28;20027;-72
2022/03/07 10:53:05;;;;;;;6.50;4.28;;;8.30;99.30;;;;;;4977997;28;20027;-72
2022/03/07 10:55:32;;;;;;;2.03;1.10;;;8.20;98.60;;;;;;5007592;28;20039;-73
2022/03/07 10:58:25;;;;;;;1.75;0.85;;;8.40;99.60;;;;;;4981331;28;20791;-72
2022/03/07 11:00:59;;;;;;;4.25;1.42;;;8.50;98.70;;;;;;4978862;28;20042;-72
2022/03/07 11:03:29;;;;;;;0.73;0.73;;;8.50;99.10;;;;;;4988733;28;20038;-72
2022/03/07 11:05:56;;;;;;;3.88;1.35;;;8.70;98.80;;;;;;4990125;28;20053;-72
2022/03/07 11:08:22;;;;;;;4.78;2.28;;;8.70;98.70;;;;;;4988823;28;20137;-73
2022/03/07 11:10:53;;;;;;;2.10;0.95;;;8.80;99.20;;;;;;4985870;28;20031;-73
2022/03/07 11:13:26;;;;;;;1.55;1.13;;;8.90;99.20;;;;;;4973740;28;20389;-73
2022/03/07 11:15:55;;;;;;;3.45;1.02;;;9.20;98.50;;;;;;4990635;28;20028;-73
2022/03/07 11:18:22;;;;;;;0.70;0.70;;;9.20;98.20;;;;;;4983149;28;20034;-73
2022/03/07 11:20:49;;;;;;;3.13;2.35;;;9.30;98.80;;;;;;4984609;28;20027;-73
2022/03/07 11:23:17;;;;;;;2.47;1.02;;;9.20;98.00;;;;;;4980081;28;20027;-73
2022/03/07 11:25:48;;;;;;;1.00;0.90;;;9.20;98.70;;;;;;4991597;28;20025;-73
2022/03/07 11:28:14;;;;;;;6.25;1.75;;;9.40;98.20;;;;;;4994774;28;20041;-73
2022/03/07 11:30:42;;;;;;;2.17;1.25;;;9.40;98.30;;;;;;4991327;28;20458;-73
2022/03/07 11:33:16;;;;;;;2.85;0.60;;;9.50;98.60;;;;;;4978178;28;20022;-73
2022/03/07 11:35:50;;;;;;;1.65;1.00;;;9.50;98.00;;;;;;4983015;28;20030;-73
2022/03/07 11:38:22;;;;;;;0.43;0.10;;;9.50;98.50;;;;;;4993271;28;20034;-73
2022/03/07 11:40:56;;;;;;;1.73;1.52;;;9.30;98.60;;;;;;4976043;28;20057;-73
2022/03/07 11:43:24;;;;;;;4.95;0.98;;;9.50;99.30;;;;;;4980482;28;20073;-73
2022/03/07 11:45:51;;;;;;;1.45;1.35;;;9.60;98.20;;;;;;4982132;28;20065;-73
2022/03/07 11:48:16;;;;;;;1.52;1.13;;;9.80;97.90;;;;;;4989498;28;20037;-73
2022/03/07 11:50:42;;;;;;;0.75;0.75;;;9.90;98.10;;;;;;4987274;28;20034;-73
2022/03/07 11:53:08;;;;;;;3.05;1.83;;;9.80;97.40;;;;;;4983756;28;20019;-73
2022/03/07 11:55:49;;;;;;;1.02;0.95;;;9.80;98.30;;;;;;4984625;28;20118;-73
2022/03/07 11:58:36;;;;;;;3.08;1.55;;;9.80;97.90;;;;;;4983393;28;20080;-73
2022/03/07 12:01:08;;;;;;;2.75;0.85;;;9.90;96.70;;;;;;4987750;28;20038;-73
2022/03/07 12:03:35;;;;;;;1.60;1.50;;;10.10;97.30;;;;;;4988855;28;20033;-73
2022/03/07 12:06:05;;;;;;;5.22;1.33;;;10.20;97.10;;;;;;4986781;28;20031;-73
2022/03/07 12:08:42;;;;;;;1.67;0.63;;;10.20;96.80;;;;;;4984600;28;20379;-73
2022/03/07 12:11:09;;;;;;;0.77;0.77;;;10.30;97.30;;;;;;4985746;28;20504;-73
2022/03/07 12:13:46;;;;;;;1.95;1.35;;;10.50;98.90;;;;;;4986950;28;20025;-73
2022/03/07 12:16:23;;;;;;;2.80;1.27;;;10.70;96.40;;;;;;4986164;28;20781;-73
2022/03/07 12:18:49;;;;;;;5.93;1.20;;;10.80;95.50;;;;;;4984422;28;20748;-73
2022/03/07 12:21:15;;;;;;;6.88;0.82;;;10.70;95.90;;;;;;4979550;28;20035;-73
2022/03/07 12:23:41;;;;;;;2.75;0.82;;;10.90;94.70;;;;;;4985094;28;20521;-73
2022/03/07 12:26:10;;;;;;;1.00;0.77;;;11.00;95.70;;;;;;4987304;28;20485;-73
2022/03/07 12:28:41;;;;;;;1.88;1.27;;;11.00;95.00;;;;;;4992443;28;20037;-73
2022/03/07 12:31:07;;;;;;;0.68;0.68;;;10.80;94.80;;;;;;4996604;28;20022;-73
2022/03/07 12:33:34;;;;;;;6.35;1.23;;;11.00;95.60;;;;;;4984350;28;20027;-73
2022/03/07 12:36:07;;;;;;;2.15;1.35;;;11.10;94.70;;;;;;4973175;28;20120;-73
2022/03/07 12:38:33;;;;;;;1.40;0.77;;;11.30;94.10;;;;;;4994498;28;20218;-73
2022/03/07 12:40:59;;;;;;;5.57;1.48;;;11.30;94.60;;;;;;4979866;28;20125;-72
2022/03/07 12:43:26;;;;;;;3.70;2.25;;;11.30;96.20;;;;;;4985280;28;20027;-73
2022/03/07 12:45:56;;;;;;;0.85;0.43;;;11.20;95.60;;;;;;4975724;28;20042;-73
2022/03/07 12:48:39;;;;;;;3.45;1.58;;;11.50;95.40;;;;;;4987126;28;20019;-73
2022/03/07 12:51:09;;;;;;;1.73;1.00;;;11.40;94.50;;;;;;4982579;28;20026;-73